Time;durP1;ratioP1;P1;durP2;ratioP2;P2;SDS_P1;SDS_P2;PMS_P1;PMS_P2;Temp;Humidity;BMP_temperature;BMP_pressure;BME280_temperature;BME280_humidity;BME280_pressure;Samples;Min_cycle;Max_cycle;Signal;HPM_P1;HPM_P2
2023/10/15 00:00:47;;;;;;;;;;;;;;;;;;5072814;28;892;-68
2023/10/15 00:03:12;;;;;;;;;;;;;;;;;;5072292;28;849;-68
2023/10/15 00:05:37;;;;;;;;;;;;;;;;;;5072537;28;844;-68
2023/10/15 00:08:03;;;;;;;;;;;;;;;;;;5073143;28;987;-68
2023/10/15 00:10:30;;;;;;;;;;;;;;;;;;5072641;28;832;-68
2023/10/15 00:12:56;;;;;;;;;;;;;;;;;;5072920;28;907;-68
2023/10/15 00:15:27;;;;;;;;;;;;;;;;;;5072102;28;1898;-68
2023/10/15 00:18:03;;;;;;;;;;;;;;;;;;5071515;28;1189;-68
2023/10/15 00:20:34;;;;;;;;;;;;;;;;;;5071936;28;837;-67
2023/10/15 00:23:05;;;;;;;;;;;;;;;;;;5072471;28;836;-68
2023/10/15 00:25:35;;;;;;;;;;;;;;;;;;5070938;28;988;-68
2023/10/15 00:28:01;;;;;;;;;;;;;;;;;;5070513;28;971;-67
2023/10/15 00:30:32;;;;;;;;;;;;;;;;;;5071723;28;873;-67
2023/10/15 00:32:58;;;;;;;;;;;;;;;;;;5070574;28;837;-67
2023/10/15 00:35:25;;;;;;;;;;;;;;;;;;5071686;28;1973;-68
2023/10/15 00:37:56;;;;;;;;;;;;;;;;;;5072050;28;833;-68
2023/10/15 00:40:23;;;;;;;;;;;;;;;;;;5069574;28;928;-68
2023/10/15 00:42:48;;;;;;;;;;;;;;;;;;5070218;28;1226;-68
2023/10/15 00:45:20;;;;;;;;;;;;;;;;;;5070909;28;857;-68
2023/10/15 00:47:52;;;;;;;;;;;;;;;;;;5070269;28;1251;-67
2023/10/15 00:50:18;;;;;;;;;;;;;;;;;;5071548;28;868;-68
2023/10/15 00:52:44;;;;;;;;;;;;;;;;;;5069725;28;865;-67
2023/10/15 00:55:35;;;;;;;;;;;;;;;;;;5070388;28;1970;-68
2023/10/15 00:58:07;;;;;;;;;;;;;;;;;;5071703;28;927;-68
2023/10/15 01:03:17;;;;;;;;;;;;;;;;;;5069831;28;796;-68
2023/10/15 01:05:53;;;;;;;;;;;;;;;;;;5071574;28;845;-68
2023/10/15 01:08:24;;;;;;;;;;;;;;;;;;5070910;28;869;-68
2023/10/15 01:10:53;;;;;;;;;;;;;;;;;;5071457;28;905;-68
2023/10/15 01:13:21;;;;;;;;;;;;;;;;;;5071652;28;908;-68
2023/10/15 01:15:51;;;;;;;;;;;;;;;;;;5071989;28;1960;-68
2023/10/15 01:18:16;;;;;;;;;;;;;;;;;;5071597;28;877;-68
2023/10/15 01:20:42;;;;;;;;;;;;;;;;;;5072139;28;1058;-68
2023/10/15 01:23:08;;;;;;;;;;;;;;;;;;5071487;28;872;-68
2023/10/15 01:25:34;;;;;;;;;;;;;;;;;;5069925;28;860;-68
2023/10/15 01:28:00;;;;;;;;;;;;;;;;;;5071619;28;909;-68
2023/10/15 01:30:26;;;;;;;;;;;;;;;;;;5070372;28;865;-68
2023/10/15 01:32:52;;;;;;;;;;;;;;;;;;5071309;28;920;-68
2023/10/15 01:35:19;;;;;;;;;;;;;;;;;;5069021;28;1894;-68
2023/10/15 01:37:57;;;;;;;;;;;;;;;;;;5070880;28;853;-68
2023/10/15 01:40:41;;;;;;;;;;;;;;;;;;5069492;28;930;-68
2023/10/15 01:43:12;;;;;;;;;;;;;;;;;;5071254;28;864;-68
2023/10/15 01:45:38;;;;;;;;;;;;;;;;;;5069462;28;939;-68
2023/10/15 01:48:05;;;;;;;;;;;;;;;;;;5070884;28;935;-68
2023/10/15 01:50:41;;;;;;;;;;;;;;;;;;5069493;28;1310;-69
2023/10/15 01:53:07;;;;;;;;;;;;;;;;;;5070256;28;895;-68
2023/10/15 01:55:35;;;;;;;;;;;;;;;;;;5070506;28;1897;-68
2023/10/15 01:58:01;;;;;;;;;;;;;;;;;;5070948;28;976;-68
2023/10/15 02:03:00;;;;;;;;;;;;;;;;;;5071060;28;989;-68
2023/10/15 02:05:30;;;;;;;;;;;;;;;;;;5070752;28;886;-68
2023/10/15 02:07:56;;;;;;;;;;;;;;;;;;5069426;28;1175;-69
2023/10/15 02:10:28;;;;;;;;;;;;;;;;;;5070323;28;875;-68
2023/10/15 02:13:04;;;;;;;;;;;;;;;;;;5069464;28;1338;-68
2023/10/15 02:15:39;;;;;;;;;;;;;;;;;;5070225;28;1914;-68
2023/10/15 02:18:08;;;;;;;;;;;;;;;;;;5070860;28;864;-68
2023/10/15 02:23:08;;;;;;;;;;;;;;;;;;5070486;28;812;-68
2023/10/15 02:25:37;;;;;;;;;;;;;;;;;;5069356;28;905;-68
2023/10/15 02:28:02;;;;;;;;;;;;;;;;;;5069312;28;837;-68
2023/10/15 02:30:32;;;;;;;;;;;;;;;;;;5051982;28;1320;-69
2023/10/15 02:32:58;;;;;;;;;;;;;;;;;;5070561;28;835;-68
2023/10/15 02:35:24;;;;;;;;;;;;;;;;;;5070093;28;1902;-68
2023/10/15 02:37:49;;;;;;;;;;;;;;;;;;5068780;28;1325;-68
2023/10/15 02:40:17;;;;;;;;;;;;;;;;;;5070055;28;873;-68
2023/10/15 02:42:52;;;;;;;;;;;;;;;;;;5070321;28;976;-68
2023/10/15 02:45:18;;;;;;;;;;;;;;;;;;5069910;28;939;-68
2023/10/15 02:47:48;;;;;;;;;;;;;;;;;;5070214;28;832;-68
2023/10/15 02:50:18;;;;;;;;;;;;;;;;;;5070521;28;809;-68
2023/10/15 02:52:44;;;;;;;;;;;;;;;;;;5073513;28;908;-68
2023/10/15 02:55:14;;;;;;;;;;;;;;;;;;5073835;28;1910;-68
2023/10/15 02:57:40;;;;;;;;;;;;;;;;;;5074504;28;1085;-68
2023/10/15 03:00:41;;;;;;;;;;;;;;;;;;5074859;28;845;-68
2023/10/15 03:02:58;;;;;;;;;;;;;;;;;;5071469;28;1155;-68
2023/10/15 03:05:30;;;;;;;;;;;;;;;;;;5073895;28;971;-68
2023/10/15 03:07:56;;;;;;;;;;;;;;;;;;5073842;28;1027;-69
2023/10/15 03:10:21;;;;;;;;;;;;;;;;;;5073057;28;825;-68
2023/10/15 03:12:50;;;;;;;;;;;;;;;;;;5071760;28;1246;-68
2023/10/15 03:15:16;;;;;;;;;;;;;;;;;;5072816;28;1902;-68
2023/10/15 03:17:43;;;;;;;;;;;;;;;;;;5072051;28;1411;-68
2023/10/15 03:22:44;;;;;;;;;;;;;;;;;;5072905;28;803;-68
2023/10/15 03:25:16;;;;;;;;;;;;;;;;;;5071529;28;1379;-69
2023/10/15 03:27:46;;;;;;;;;;;;;;;;;;5072073;28;1246;-68
2023/10/15 03:30:13;;;;;;;;;;;;;;;;;;5072796;28;849;-68
2023/10/15 03:32:41;;;;;;;;;;;;;;;;;;5073456;28;911;-69
2023/10/15 03:35:16;;;;;;;;;;;;;;;;;;5073176;28;1895;-68
2023/10/15 03:37:58;;;;;;;;;;;;;;;;;;5071926;28;962;-68
2023/10/15 03:40:32;;;;;;;;;;;;;;;;;;5072584;28;943;-68
2023/10/15 03:43:06;;;;;;;;;;;;;;;;;;5072795;28;904;-68
2023/10/15 03:45:50;;;;;;;;;;;;;;;;;;5072854;28;868;-68
2023/10/15 03:48:16;;;;;;;;;;;;;;;;;;5070970;28;1392;-68
2023/10/15 03:50:53;;;;;;;;;;;;;;;;;;5071284;28;1227;-68
2023/10/15 03:53:20;;;;;;;;;;;;;;;;;;5072166;28;868;-68
2023/10/15 03:55:49;;;;;;;;;;;;;;;;;;5072423;28;1955;-68
2023/10/15 03:58:15;;;;;;;;;;;;;;;;;;5071966;28;853;-68
2023/10/15 04:00:46;;;;;;;;;;;;;;;;;;5072542;28;943;-68
2023/10/15 04:03:31;;;;;;;;;;;;;;;;;;5070326;28;1325;-68
2023/10/15 04:06:06;;;;;;;;;;;;;;;;;;5070750;28;919;-68
2023/10/15 04:08:31;;;;;;;;;;;;;;;;;;5070403;28;939;-68
2023/10/15 04:10:57;;;;;;;;;;;;;;;;;;5071470;28;1421;-68
2023/10/15 04:13:26;;;;;;;;;;;;;;;;;;5070524;28;1357;-68
2023/10/15 04:15:51;;;;;;;;;;;;;;;;;;5071574;28;1906;-69
2023/10/15 04:18:17;;;;;;;;;;;;;;;;;;5071467;28;943;-68
2023/10/15 04:20:42;;;;;;;;;;;;;;;;;;5070382;28;1219;-68
2023/10/15 04:23:56;;;;;;;;;;;;;;;;;;5070522;28;1203;-68
2023/10/15 04:25:53;;;;;;;;;;;;;;;;;;5066869;28;1390;-68
2023/10/15 04:28:19;;;;;;;;;;;;;;;;;;5071438;28;904;-68
2023/10/15 04:30:46;;;;;;;;;;;;;;;;;;5072267;28;857;-68
2023/10/15 04:33:13;;;;;;;;;;;;;;;;;;5071416;28;1570;-68
2023/10/15 04:35:40;;;;;;;;;;;;;;;;;;5071635;28;1910;-68
2023/10/15 04:38:08;;;;;;;;;;;;;;;;;;5070390;28;924;-68
2023/10/15 04:41:10;;;;;;;;;;;;;;;;;;5072828;28;833;-68
2023/10/15 04:43:26;;;;;;;;;;;;;;;;;;5070071;28;1167;-68
2023/10/15 04:46:02;;;;;;;;;;;;;;;;;;5072326;28;809;-68
2023/10/15 04:48:32;;;;;;;;;;;;;;;;;;5071254;28;860;-68
2023/10/15 04:51:13;;;;;;;;;;;;;;;;;;5071018;28;1186;-68
2023/10/15 04:53:50;;;;;;;;;;;;;;;;;;5072564;28;904;-69
2023/10/15 04:56:16;;;;;;;;;;;;;;;;;;5071758;28;1898;-68
2023/10/15 04:58:41;;;;;;;;;;;;;;;;;;5071739;28;900;-68
2023/10/15 05:01:07;;;;;;;;;;;;;;;;;;5071493;28;1032;-68
2023/10/15 05:03:33;;;;;;;;;;;;;;;;;;5071019;28;899;-68
2023/10/15 05:06:11;;;;;;;;;;;;;;;;;;5070940;28;935;-68
2023/10/15 05:08:36;;;;;;;;;;;;;;;;;;5070364;28;1303;-69
2023/10/15 05:11:03;;;;;;;;;;;;;;;;;;5071624;28;781;-68
2023/10/15 05:13:31;;;;;;;;;;;;;;;;;;5070405;28;872;-68
2023/10/15 05:15:56;;;;;;;;;;;;;;;;;;5070803;28;1963;-68
2023/10/15 05:18:22;;;;;;;;;;;;;;;;;;5070398;28;829;-68
2023/10/15 05:20:48;;;;;;;;;;;;;;;;;;5071033;28;817;-68
2023/10/15 05:23:14;;;;;;;;;;;;;;;;;;5070906;28;876;-68
2023/10/15 05:25:39;;;;;;;;;;;;;;;;;;5071267;28;804;-68
2023/10/15 05:28:05;;;;;;;;;;;;;;;;;;5070783;28;927;-68
2023/10/15 05:30:30;;;;;;;;;;;;;;;;;;5070580;28;903;-68
2023/10/15 05:32:55;;;;;;;;;;;;;;;;;;5052889;28;1329;-68
2023/10/15 05:35:21;;;;;;;;;;;;;;;;;;5069284;28;1890;-68
2023/10/15 05:37:46;;;;;;;;;;;;;;;;;;5071010;28;844;-68
2023/10/15 05:40:17;;;;;;;;;;;;;;;;;;5070372;28;825;-68
2023/10/15 05:42:43;;;;;;;;;;;;;;;;;;5070871;28;959;-68
2023/10/15 05:45:08;;;;;;;;;;;;;;;;;;5069178;28;892;-68
2023/10/15 05:47:34;;;;;;;;;;;;;;;;;;5070164;28;872;-68
2023/10/15 05:49:59;;;;;;;;;;;;;;;;;;5070015;28;836;-68
2023/10/15 05:52:25;;;;;;;;;;;;;;;;;;5070550;28;888;-68
2023/10/15 05:54:53;;;;;;;;;;;;;;;;;;5070696;28;880;-68
2023/10/15 05:57:19;;;;;;;;;;;;;;;;;;5070173;28;1951;-68
2023/10/15 05:59:44;;;;;;;;;;;;;;;;;;5071183;28;845;-68
2023/10/15 06:02:09;;;;;;;;;;;;;;;;;;5070689;28;813;-68
2023/10/15 06:04:36;;;;;;;;;;;;;;;;;;5069365;28;900;-68
2023/10/15 06:07:05;;;;;;;;;;;;;;;;;;5070771;28;1026;-68
2023/10/15 06:09:30;;;;;;;;;;;;;;;;;;5069100;28;1443;-68
2023/10/15 06:11:55;;;;;;;;;;;;;;;;;;5070646;28;824;-68
2023/10/15 06:14:23;;;;;;;;;;;;;;;;;;5052572;28;1309;-68
2023/10/15 06:16:52;;;;;;;;;;;;;;;;;;5070669;28;1914;-68
2023/10/15 06:19:17;;;;;;;;;;;;;;;;;;5070172;28;900;-68
2023/10/15 06:21:43;;;;;;;;;;;;;;;;;;5071222;28;1014;-68
2023/10/15 06:24:09;;;;;;;;;;;;;;;;;;5070711;28;845;-68
2023/10/15 06:26:35;;;;;;;;;;;;;;;;;;5073219;28;813;-67
2023/10/15 06:29:01;;;;;;;;;;;;;;;;;;5073252;28;932;-68
2023/10/15 06:31:28;;;;;;;;;;;;;;;;;;5074319;28;865;-67
2023/10/15 06:33:55;;;;;;;;;;;;;;;;;;5075151;28;849;-68
2023/10/15 06:36:20;;;;;;;;;;;;;;;;;;5074903;28;1963;-67
2023/10/15 06:38:45;;;;;;;;;;;;;;;;;;5075898;28;994;-68
2023/10/15 06:41:11;;;;;;;;;;;;;;;;;;5074960;28;821;-67
2023/10/15 06:43:36;;;;;;;;;;;;;;;;;;5073953;28;963;-67
2023/10/15 06:46:06;;;;;;;;;;;;;;;;;;5075321;28;951;-68
2023/10/15 06:48:33;;;;;;;;;;;;;;;;;;5075301;28;864;-68
2023/10/15 06:50:59;;;;;;;;;;;;;;;;;;5075746;28;879;-67
2023/10/15 06:53:24;;;;;;;;;;;;;;;;;;5075250;28;869;-68
2023/10/15 06:55:51;;;;;;;;;;;;;;;;;;5074883;28;1902;-67
2023/10/15 06:58:16;;;;;;;;;;;;;;;;;;5073792;28;841;-68
2023/10/15 07:00:41;;;;;;;;;;;;;;;;;;5071358;28;1231;-67
2023/10/15 07:03:06;;;;;;;;;;;;;;;;;;5050714;28;1153;-67
2023/10/15 07:05:32;;;;;;;;;;;;;;;;;;5032400;28;1452;-68
2023/10/15 07:07:57;;;;;;;;;;;;;;;;;;5051463;28;1265;-67
2023/10/15 07:10:23;;;;;;;;;;;;;;;;;;5068218;28;1404;-67
2023/10/15 07:12:51;;;;;;;;;;;;;;;;;;5053965;28;793;-67
2023/10/15 07:15:17;;;;;;;;;;;;;;;;;;5051461;28;1914;-67
2023/10/15 07:17:43;;;;;;;;;;;;;;;;;;5065602;28;1132;-67
2023/10/15 07:20:20;;;;;;;;;;;;;;;;;;5071090;28;1152;-68
2023/10/15 07:22:46;;;;;;;;;;;;;;;;;;5068635;28;1168;-68
2023/10/15 07:25:13;;;;;;;;;;;;;;;;;;5070365;28;1187;-68
2023/10/15 07:27:41;;;;;;;;;;;;;;;;;;5069850;28;1085;-67
2023/10/15 07:30:08;;;;;;;;;;;;;;;;;;5056088;28;1202;-68
2023/10/15 07:32:34;;;;;;;;;;;;;;;;;;5053114;28;774;-67
2023/10/15 07:34:59;;;;;;;;;;;;;;;;;;5053043;28;849;-68
2023/10/15 07:37:25;;;;;;;;;;;;;;;;;;5052493;28;1897;-68
2023/10/15 07:39:50;;;;;;;;;;;;;;;;;;5053619;28;828;-67
2023/10/15 07:42:15;;;;;;;;;;;;;;;;;;5051320;28;1602;-68
2023/10/15 07:44:41;;;;;;;;;;;;;;;;;;5052359;28;1322;-68
2023/10/15 07:47:06;;;;;;;;;;;;;;;;;;5052493;28;845;-68
2023/10/15 07:49:31;;;;;;;;;;;;;;;;;;5051372;28;873;-68
2023/10/15 07:51:57;;;;;;;;;;;;;;;;;;5051954;28;1429;-68
2023/10/15 07:54:23;;;;;;;;;;;;;;;;;;5034254;28;1547;-68
2023/10/15 07:56:48;;;;;;;;;;;;;;;;;;5051183;28;1945;-68
2023/10/15 07:59:14;;;;;;;;;;;;;;;;;;5050885;28;1370;-68
2023/10/15 08:01:39;;;;;;;;;;;;;;;;;;5034612;28;1358;-68
2023/10/15 08:04:06;;;;;;;;;;;;;;;;;;5051396;28;873;-68
2023/10/15 08:06:32;;;;;;;;;;;;;;;;;;5050956;28;1135;-68
2023/10/15 08:08:57;;;;;;;;;;;;;;;;;;5051978;28;928;-68
2023/10/15 08:11:23;;;;;;;;;;;;;;;;;;5050696;28;926;-68
2023/10/15 08:13:48;;;;;;;;;;;;;;;;;;5051903;28;1425;-68
2023/10/15 08:16:15;;;;;;;;;;;;;;;;;;5053206;28;1898;-68
2023/10/15 08:18:42;;;;;;;;;;;;;;;;;;5054099;28;901;-68
2023/10/15 08:21:11;;;;;;;;;;;;;;;;;;5036182;28;1354;-68
2023/10/15 08:23:38;;;;;;;;;;;;;;;;;;5052546;28;1177;-68
2023/10/15 08:26:05;;;;;;;;;;;;;;;;;;5052042;28;1217;-67
2023/10/15 08:28:30;;;;;;;;;;;;;;;;;;5053342;28;856;-68
2023/10/15 08:30:57;;;;;;;;;;;;;;;;;;5053494;28;1035;-68
2023/10/15 08:33:23;;;;;;;;;;;;;;;;;;5052402;28;876;-67
2023/10/15 08:35:49;;;;;;;;;;;;;;;;;;5052222;28;1894;-67
2023/10/15 08:38:14;;;;;;;;;;;;;;;;;;5051151;28;1401;-67
2023/10/15 08:40:41;;;;;;;;;;;;;;;;;;5051058;28;845;-67
2023/10/15 08:43:23;;;;;;;;;;;;;;;;;;5048186;28;1251;-68
2023/10/15 08:45:49;;;;;;;;;;;;;;;;;;5051839;28;903;-67
2023/10/15 08:48:16;;;;;;;;;;;;;;;;;;5049831;28;751;-67
2023/10/15 08:50:42;;;;;;;;;;;;;;;;;;5051320;28;937;-67
2023/10/15 08:53:07;;;;;;;;;;;;;;;;;;5051128;28;893;-67
2023/10/15 08:55:34;;;;;;;;;;;;;;;;;;5051248;28;1957;-68
2023/10/15 08:58:00;;;;;;;;;;;;;;;;;;5051303;28;1003;-68
2023/10/15 09:00:25;;;;;;;;;;;;;;;;;;5051332;28;849;-67
2023/10/15 09:03:00;;;;;;;;;;;;;;;;;;5050460;28;1306;-68
2023/10/15 09:05:25;;;;;;;;;;;;;;;;;;5049282;28;1314;-68
2023/10/15 09:07:52;;;;;;;;;;;;;;;;;;5050368;28;1235;-68
2023/10/15 09:10:21;;;;;;;;;;;;;;;;;;5051182;28;891;-67
2023/10/15 09:12:47;;;;;;;;;;;;;;;;;;5034235;28;1361;-68
2023/10/15 09:15:16;;;;;;;;;;;;;;;;;;5051306;28;935;-68
2023/10/15 09:17:42;;;;;;;;;;;;;;;;;;5051461;28;1910;-67
2023/10/15 09:20:09;;;;;;;;;;;;;;;;;;5049058;28;1400;-67
2023/10/15 09:22:36;;;;;;;;;;;;;;;;;;5048977;28;1226;-68
2023/10/15 09:25:02;;;;;;;;;;;;;;;;;;5050728;28;773;-67
2023/10/15 09:27:27;;;;;;;;;;;;;;;;;;5050312;28;829;-68
2023/10/15 09:30:18;;;;;;;;;;;;;;;;;;5049767;28;1270;-68
2023/10/15 09:32:43;;;;;;;;;;;;;;;;;;5051154;28;955;-68
2023/10/15 09:35:09;;;;;;;;;;;;;;;;;;5050854;28;888;-68
2023/10/15 09:37:35;;;;;;;;;;;;;;;;;;5049510;28;1894;-68
2023/10/15 09:40:00;;;;;;;;;;;;;;;;;;5051299;28;833;-67
2023/10/15 09:42:33;;;;;;;;;;;;;;;;;;5032136;28;1184;-68
2023/10/15 09:45:01;;;;;;;;;;;;;;;;;;5050797;28;927;-68
2023/10/15 09:47:27;;;;;;;;;;;;;;;;;;5050147;28;873;-68
2023/10/15 09:49:54;;;;;;;;;;;;;;;;;;5033112;28;1231;-67
2023/10/15 09:52:20;;;;;;;;;;;;;;;;;;5032042;28;1396;-68
2023/10/15 09:54:48;;;;;;;;;;;;;;;;;;5049755;28;1480;-68
2023/10/15 09:57:16;;;;;;;;;;;;;;;;;;5049951;28;1959;-68
2023/10/15 09:59:41;;;;;;;;;;;;;;;;;;5048919;28;1293;-68
2023/10/15 10:02:12;;;;;;;;;;;;;;;;;;5039917;28;1666;-67
2023/10/15 10:04:40;;;;;;;;;;;;;;;;;;5058073;28;881;-68
2023/10/15 10:07:17;;;;;;;;;;;;;;;;;;5058726;28;872;-67
2023/10/15 10:09:51;;;;;;;;;;;;;;;;;;5058316;28;1019;-67
2023/10/15 10:12:19;;;;;;;;;;;;;;;;;;5057768;28;901;-68
2023/10/15 10:15:03;;;;;;;;;;;;;;;;;;5058471;28;837;-68
2023/10/15 10:17:29;;;;;;;;;;;;;;;;;;5057826;28;1935;-68
2023/10/15 10:19:55;;;;;;;;;;;;;;;;;;5056430;28;1460;-68
2023/10/15 10:22:24;;;;;;;;;;;;;;;;;;5055351;28;1301;-68
2023/10/15 10:24:50;;;;;;;;;;;;;;;;;;5058023;28;1080;-68
2023/10/15 10:27:16;;;;;;;;;;;;;;;;;;5057395;28;830;-68
2023/10/15 10:29:43;;;;;;;;;;;;;;;;;;5055639;28;1236;-69
2023/10/15 10:32:09;;;;;;;;;;;;;;;;;;5057118;28;884;-68
2023/10/15 10:34:34;;;;;;;;;;;;;;;;;;5056286;28;877;-67
2023/10/15 10:37:00;;;;;;;;;;;;;;;;;;5057017;28;1902;-66
2023/10/15 10:39:42;;;;;;;;;;;;;;;;;;5056581;28;971;-67
2023/10/15 10:42:18;;;;;;;;;;;;;;;;;;5057637;28;943;-67
2023/10/15 10:44:44;;;;;;;;;;;;;;;;;;5055443;28;1743;-67
2023/10/15 10:47:29;;;;;;;;;;;;;;;;;;5055658;28;964;-67
2023/10/15 10:49:56;;;;;;;;;;;;;;;;;;5056710;28;1100;-66
2023/10/15 10:52:28;;;;;;;;;;;;;;;;;;5055939;28;892;-68
2023/10/15 10:54:56;;;;;;;;;;;;;;;;;;5056073;28;1191;-67
2023/10/15 10:57:23;;;;;;;;;;;;;;;;;;5055674;28;1890;-68
2023/10/15 10:59:49;;;;;;;;;;;;;;;;;;5056107;28;887;-67
2023/10/15 11:02:14;;;;;;;;;;;;;;;;;;5055461;28;1297;-67
2023/10/15 11:04:40;;;;;;;;;;;;;;;;;;5056081;28;971;-67
2023/10/15 11:07:07;;;;;;;;;;;;;;;;;;5057203;28;894;-67
2023/10/15 11:09:36;;;;;;;;;;;;;;;;;;5054554;28;1448;-68
2023/10/15 11:12:04;;;;;;;;;;;;;;;;;;5053262;28;1318;-67
2023/10/15 11:14:29;;;;;;;;;;;;;;;;;;5053043;28;904;-67
2023/10/15 11:16:55;;;;;;;;;;;;;;;;;;5054192;28;1973;-67
2023/10/15 11:19:21;;;;;;;;;;;;;;;;;;5052266;28;911;-68
2023/10/15 11:21:47;;;;;;;;;;;;;;;;;;5053499;28;956;-68
2023/10/15 11:24:12;;;;;;;;;;;;;;;;;;5053278;28;794;-67
2023/10/15 11:26:47;;;;;;;;;;;;;;;;;;5051058;28;1793;-67
2023/10/15 11:29:14;;;;;;;;;;;;;;;;;;5052006;28;1117;-68
2023/10/15 11:31:44;;;;;;;;;;;;;;;;;;5052411;28;907;-68
2023/10/15 11:34:10;;;;;;;;;;;;;;;;;;5053554;28;865;-67
2023/10/15 11:36:36;;;;;;;;;;;;;;;;;;5052273;28;1890;-67
2023/10/15 11:39:03;;;;;;;;;;;;;;;;;;5051977;28;872;-68
2023/10/15 11:41:32;;;;;;;;;;;;;;;;;;5053183;28;836;-67
2023/10/15 11:44:01;;;;;;;;;;;;;;;;;;5053390;28;852;-68
2023/10/15 11:46:26;;;;;;;;;;;;;;;;;;5034778;28;1194;-67
2023/10/15 11:48:51;;;;;;;;;;;;;;;;;;5053386;28;896;-68
2023/10/15 11:51:18;;;;;;;;;;;;;;;;;;5053378;28;845;-68
2023/10/15 11:53:46;;;;;;;;;;;;;;;;;;5053561;28;864;-67
2023/10/15 11:56:17;;;;;;;;;;;;;;;;;;5053415;28;1979;-67
2023/10/15 11:58:45;;;;;;;;;;;;;;;;;;5051908;28;1329;-68
2023/10/15 12:01:14;;;;;;;;;;;;;;;;;;5052603;28;956;-67
2023/10/15 12:03:41;;;;;;;;;;;;;;;;;;5035881;28;1311;-67
2023/10/15 12:06:07;;;;;;;;;;;;;;;;;;5052402;28;1484;-67
2023/10/15 12:08:32;;;;;;;;;;;;;;;;;;5034279;28;1183;-67
2023/10/15 12:10:58;;;;;;;;;;;;;;;;;;5050958;28;1202;-67
2023/10/15 12:13:23;;;;;;;;;;;;;;;;;;5050333;28;1184;-67
2023/10/15 12:15:48;;;;;;;;;;;;;;;;;;5051012;28;1909;-67
2023/10/15 12:18:13;;;;;;;;;;;;;;;;;;5052034;28;919;-68
2023/10/15 12:20:39;;;;;;;;;;;;;;;;;;5050601;28;1286;-67
2023/10/15 12:23:04;;;;;;;;;;;;;;;;;;5052145;28;785;-68
2023/10/15 12:25:29;;;;;;;;;;;;;;;;;;5033237;28;1211;-67
2023/10/15 12:27:54;;;;;;;;;;;;;;;;;;5051233;28;1302;-67
2023/10/15 12:30:29;;;;;;;;;;;;;;;;;;5050115;28;1355;-67
2023/10/15 12:32:55;;;;;;;;;;;;;;;;;;5051142;28;1175;-68
2023/10/15 12:35:21;;;;;;;;;;;;;;;;;;5051417;28;841;-68
2023/10/15 12:37:47;;;;;;;;;;;;;;;;;;5051850;28;1953;-68
2023/10/15 12:40:13;;;;;;;;;;;;;;;;;;5052074;28;821;-68
2023/10/15 12:42:39;;;;;;;;;;;;;;;;;;5051412;28;789;-68
2023/10/15 12:45:06;;;;;;;;;;;;;;;;;;5051474;28;1223;-67
2023/10/15 12:47:32;;;;;;;;;;;;;;;;;;5051036;28;857;-67
2023/10/15 12:49:58;;;;;;;;;;;;;;;;;;5051680;28;856;-67
2023/10/15 12:52:24;;;;;;;;;;;;;;;;;;5050119;28;1516;-68
2023/10/15 12:54:50;;;;;;;;;;;;;;;;;;5033891;28;1113;-68
2023/10/15 12:57:15;;;;;;;;;;;;;;;;;;5051453;28;1951;-67
2023/10/15 12:59:40;;;;;;;;;;;;;;;;;;5049651;28;895;-68
2023/10/15 13:02:05;;;;;;;;;;;;;;;;;;5051837;28;844;-68
2023/10/15 13:04:31;;;;;;;;;;;;;;;;;;5049432;28;1282;-67
2023/10/15 13:06:56;;;;;;;;;;;;;;;;;;5050620;28;997;-68
2023/10/15 13:09:25;;;;;;;;;;;;;;;;;;5051779;28;1014;-68
2023/10/15 13:11:54;;;;;;;;;;;;;;;;;;5049997;28;1208;-68
2023/10/15 13:14:19;;;;;;;;;;;;;;;;;;5051183;28;880;-68
2023/10/15 13:16:46;;;;;;;;;;;;;;;;;;5051150;28;2009;-67
2023/10/15 13:19:13;;;;;;;;;;;;;;;;;;5051389;28;1076;-67
2023/10/15 13:21:38;;;;;;;;;;;;;;;;;;5049732;28;1246;-67
2023/10/15 13:24:04;;;;;;;;;;;;;;;;;;5051389;28;900;-68
2023/10/15 13:26:29;;;;;;;;;;;;;;;;;;5049419;28;881;-67
2023/10/15 13:28:54;;;;;;;;;;;;;;;;;;5050237;28;1158;-67
2023/10/15 13:31:20;;;;;;;;;;;;;;;;;;5050699;28;829;-67
2023/10/15 13:33:45;;;;;;;;;;;;;;;;;;5049850;28;1065;-67
2023/10/15 13:36:13;;;;;;;;;;;;;;;;;;5050074;28;1946;-68
2023/10/15 13:38:39;;;;;;;;;;;;;;;;;;5049978;28;864;-67
2023/10/15 13:41:05;;;;;;;;;;;;;;;;;;5050940;28;921;-67
2023/10/15 13:43:30;;;;;;;;;;;;;;;;;;5049193;28;893;-67
2023/10/15 13:45:56;;;;;;;;;;;;;;;;;;5051378;28;820;-68
2023/10/15 13:48:21;;;;;;;;;;;;;;;;;;5051491;28;864;-67
2023/10/15 13:50:46;;;;;;;;;;;;;;;;;;5051279;28;841;-67
2023/10/15 13:53:12;;;;;;;;;;;;;;;;;;5051553;28;920;-67
2023/10/15 13:55:38;;;;;;;;;;;;;;;;;;5032907;28;1965;-67
2023/10/15 13:58:04;;;;;;;;;;;;;;;;;;5051691;28;1043;-67
2023/10/15 14:00:31;;;;;;;;;;;;;;;;;;5049608;28;1171;-67
2023/10/15 14:02:56;;;;;;;;;;;;;;;;;;5051314;28;923;-67
2023/10/15 14:05:22;;;;;;;;;;;;;;;;;;5050500;28;876;-68
2023/10/15 14:07:49;;;;;;;;;;;;;;;;;;5049772;28;909;-68
2023/10/15 14:10:15;;;;;;;;;;;;;;;;;;5049118;28;1430;-68
2023/10/15 14:12:40;;;;;;;;;;;;;;;;;;5050295;28;864;-68
2023/10/15 14:15:06;;;;;;;;;;;;;;;;;;5051095;28;995;-68
2023/10/15 14:17:31;;;;;;;;;;;;;;;;;;5048351;28;1985;-68
2023/10/15 14:19:59;;;;;;;;;;;;;;;;;;5050645;28;947;-68
2023/10/15 14:22:24;;;;;;;;;;;;;;;;;;5032276;28;1472;-68
2023/10/15 14:24:50;;;;;;;;;;;;;;;;;;5032423;28;1423;-67
2023/10/15 14:27:15;;;;;;;;;;;;;;;;;;5050291;28;1012;-68
2023/10/15 14:29:40;;;;;;;;;;;;;;;;;;5031745;28;865;-68
2023/10/15 14:32:06;;;;;;;;;;;;;;;;;;5049022;28;1191;-67
2023/10/15 14:34:33;;;;;;;;;;;;;;;;;;5049877;28;932;-68
2023/10/15 14:37:00;;;;;;;;;;;;;;;;;;5050085;28;1894;-67
2023/10/15 14:39:25;;;;;;;;;;;;;;;;;;5049573;28;869;-67
2023/10/15 14:41:51;;;;;;;;;;;;;;;;;;5049917;28;915;-67
2023/10/15 14:44:16;;;;;;;;;;;;;;;;;;5050293;28;1168;-67
2023/10/15 14:46:42;;;;;;;;;;;;;;;;;;5048362;28;899;-67
2023/10/15 14:49:08;;;;;;;;;;;;;;;;;;5053524;28;809;-68
2023/10/15 14:51:36;;;;;;;;;;;;;;;;;;5051983;28;1233;-68
2023/10/15 14:54:02;;;;;;;;;;;;;;;;;;5053991;28;848;-67
2023/10/15 14:56:28;;;;;;;;;;;;;;;;;;5053185;28;1894;-67
2023/10/15 14:58:53;;;;;;;;;;;;;;;;;;5052739;28;868;-67
2023/10/15 15:01:18;;;;;;;;;;;;;;;;;;5053884;28;962;-67
2023/10/15 15:03:44;;;;;;;;;;;;;;;;;;5053129;28;1110;-67
2023/10/15 15:06:09;;;;;;;;;;;;;;;;;;5053845;28;991;-68
2023/10/15 15:08:36;;;;;;;;;;;;;;;;;;5053565;28;888;-68
2023/10/15 15:11:01;;;;;;;;;;;;;;;;;;5035783;28;1241;-68
2023/10/15 15:13:26;;;;;;;;;;;;;;;;;;5052054;28;1171;-67
2023/10/15 15:15:51;;;;;;;;;;;;;;;;;;5052095;28;1919;-67
2023/10/15 15:18:17;;;;;;;;;;;;;;;;;;5053513;28;872;-67
2023/10/15 15:20:42;;;;;;;;;;;;;;;;;;5052811;28;912;-67
2023/10/15 15:23:07;;;;;;;;;;;;;;;;;;5054325;28;1011;-67
2023/10/15 15:25:36;;;;;;;;;;;;;;;;;;5052589;28;1198;-67
2023/10/15 15:28:01;;;;;;;;;;;;;;;;;;5053828;28;1274;-68
2023/10/15 15:30:26;;;;;;;;;;;;;;;;;;5070625;28;1180;-68
2023/10/15 15:32:53;;;;;;;;;;;;;;;;;;5072673;28;1060;-68
2023/10/15 15:35:19;;;;;;;;;;;;;;;;;;5072981;28;1010;-68
2023/10/15 15:37:45;;;;;;;;;;;;;;;;;;5055746;28;2009;-67
2023/10/15 15:40:11;;;;;;;;;;;;;;;;;;5072704;28;1373;-68
2023/10/15 15:42:37;;;;;;;;;;;;;;;;;;5072386;28;1340;-68
2023/10/15 15:45:03;;;;;;;;;;;;;;;;;;5073467;28;1394;-67
2023/10/15 15:47:28;;;;;;;;;;;;;;;;;;5074226;28;887;-68
2023/10/15 15:49:53;;;;;;;;;;;;;;;;;;5074607;28;1011;-68
2023/10/15 15:52:19;;;;;;;;;;;;;;;;;;5054855;28;1195;-69
2023/10/15 15:54:46;;;;;;;;;;;;;;;;;;5074565;28;999;-67
2023/10/15 15:57:12;;;;;;;;;;;;;;;;;;5073631;28;1969;-67
2023/10/15 15:59:38;;;;;;;;;;;;;;;;;;5071661;28;1381;-67
2023/10/15 16:02:03;;;;;;;;;;;;;;;;;;5071894;28;1037;-68
2023/10/15 16:04:28;;;;;;;;;;;;;;;;;;5071983;28;1007;-68
2023/10/15 16:06:53;;;;;;;;;;;;;;;;;;5072357;28;997;-68
2023/10/15 16:09:20;;;;;;;;;;;;;;;;;;5071375;28;1105;-67
2023/10/15 16:11:45;;;;;;;;;;;;;;;;;;5070437;28;1019;-67
2023/10/15 16:14:11;;;;;;;;;;;;;;;;;;5072216;28;860;-67
2023/10/15 16:16:36;;;;;;;;;;;;;;;;;;5072327;28;1969;-67
2023/10/15 16:19:03;;;;;;;;;;;;;;;;;;5070816;28;805;-67
2023/10/15 16:21:28;;;;;;;;;;;;;;;;;;5071686;28;874;-67
2023/10/15 16:23:54;;;;;;;;;;;;;;;;;;5054741;28;1211;-67
2023/10/15 16:26:19;;;;;;;;;;;;;;;;;;5071190;28;1285;-67
2023/10/15 16:28:44;;;;;;;;;;;;;;;;;;5071409;28;896;-67
2023/10/15 16:31:10;;;;;;;;;;;;;;;;;;5071766;28;989;-67
2023/10/15 16:33:35;;;;;;;;;;;;;;;;;;5071303;28;832;-67
2023/10/15 16:36:04;;;;;;;;;;;;;;;;;;5072250;28;1894;-67
2023/10/15 16:38:29;;;;;;;;;;;;;;;;;;5071119;28;914;-67
2023/10/15 16:40:55;;;;;;;;;;;;;;;;;;5070809;28;1187;-68
2023/10/15 16:43:20;;;;;;;;;;;;;;;;;;5070505;28;1333;-67
2023/10/15 16:45:48;;;;;;;;;;;;;;;;;;5070070;28;888;-69
2023/10/15 16:48:13;;;;;;;;;;;;;;;;;;5071737;28;871;-69
2023/10/15 16:50:41;;;;;;;;;;;;;;;;;;5071535;28;959;-68
2023/10/15 16:53:07;;;;;;;;;;;;;;;;;;5070684;28;1601;-69
2023/10/15 16:55:33;;;;;;;;;;;;;;;;;;5071275;28;895;-69
2023/10/15 16:57:59;;;;;;;;;;;;;;;;;;5071259;28;1965;-68
2023/10/15 17:00:24;;;;;;;;;;;;;;;;;;5071023;28;833;-68
2023/10/15 17:02:51;;;;;;;;;;;;;;;;;;5070134;28;895;-68
2023/10/15 17:05:17;;;;;;;;;;;;;;;;;;5070436;28;1254;-68
2023/10/15 17:07:43;;;;;;;;;;;;;;;;;;5071703;28;1168;-68
2023/10/15 17:10:11;;;;;;;;;;;;;;;;;;5070957;28;896;-68
2023/10/15 17:12:36;;;;;;;;;;;;;;;;;;5070691;28;849;-69
2023/10/15 17:15:02;;;;;;;;;;;;;;;;;;5070220;28;1011;-68
2023/10/15 17:17:28;;;;;;;;;;;;;;;;;;5071044;28;1992;-68
2023/10/15 17:19:53;;;;;;;;;;;;;;;;;;5053676;28;1168;-68
2023/10/15 17:22:18;;;;;;;;;;;;;;;;;;5070124;28;994;-68
2023/10/15 17:24:43;;;;;;;;;;;;;;;;;;5071564;28;848;-68